createdAt,value
2018-04-30T00:00:14.943Z,24.50
2018-04-30T00:02:43.205Z,22.03
2018-04-30T00:05:11.479Z,12.50
2018-04-30T00:07:39.733Z,12.50
2018-04-30T00:10:08.773Z,14.73
2018-04-30T00:12:37.131Z,14.50
2018-04-30T00:15:05.411Z,16.03
2018-04-30T00:17:33.669Z,18.77
2018-04-30T00:20:02.727Z,25.00
2018-04-30T00:22:31.037Z,21.27
2018-04-30T00:25:00.068Z,26.47
2018-04-30T00:27:28.323Z,27.67
2018-04-30T00:29:56.588Z,24.50
2018-04-30T00:32:24.879Z,28.20
2018-04-30T00:34:53.142Z,26.40
2018-04-30T00:37:21.583Z,27.60
2018-04-30T00:39:49.806Z,26.90
2018-04-30T00:42:18.089Z,28.77
2018-04-30T00:44:46.371Z,28.30
2018-04-30T00:47:14.881Z,29.63
2018-04-30T00:49:43.123Z,33.53
2018-04-30T00:52:11.413Z,31.60
2018-04-30T00:54:51.539Z,33.20
2018-04-30T00:57:19.863Z,29.77
2018-04-30T00:59:48.098Z,44.33
2018-04-30T01:02:16.368Z,36.57
2018-04-30T01:04:44.787Z,38.70
2018-04-30T01:07:13.042Z,49.00
2018-04-30T01:09:41.445Z,48.53
2018-04-30T01:12:09.687Z,48.40
2018-04-30T01:14:37.952Z,51.87
2018-04-30T01:17:06.235Z,58.43
2018-04-30T01:19:34.528Z,57.23
2018-04-30T01:22:02.924Z,61.40
2018-04-30T01:24:31.197Z,75.53
2018-04-30T01:27:00.285Z,89.50
2018-04-30T01:29:28.545Z,90.43
2018-04-30T01:31:56.941Z,85.97
2018-04-30T01:34:25.242Z,92.77
2018-04-30T01:36:53.477Z,83.90
2018-04-30T01:39:21.710Z,94.80
2018-04-30T01:41:49.973Z,97.53
2018-04-30T01:44:18.256Z,102.87
2018-04-30T01:46:46.622Z,121.57
2018-04-30T01:49:14.914Z,101.63
2018-04-30T01:51:43.322Z,103.47
2018-04-30T01:54:12.411Z,103.83
2018-04-30T01:56:40.673Z,112.60
2018-04-30T01:59:08.957Z,99.60
2018-04-30T02:01:37.357Z,113.73
2018-04-30T02:04:05.681Z,111.50
2018-04-30T02:06:33.969Z,109.23
2018-04-30T02:09:02.223Z,123.73
2018-04-30T02:11:30.578Z,138.27
2018-04-30T02:13:59.605Z,128.83
2018-04-30T02:16:27.883Z,116.83
2018-04-30T02:18:56.150Z,122.27
2018-04-30T02:21:24.427Z,101.40
2018-04-30T02:23:52.755Z,117.10
2018-04-30T02:26:21.053Z,117.53
2018-04-30T02:28:49.312Z,111.50
2018-04-30T02:31:18.407Z,108.93
2018-04-30T02:33:46.700Z,113.33
2018-04-30T02:36:15.014Z,103.77
2018-04-30T02:38:43.278Z,104.63
2018-04-30T02:41:11.562Z,103.40
2018-04-30T02:43:39.837Z,115.47
2018-04-30T02:46:08.100Z,113.23
2018-04-30T02:48:36.479Z,118.83
2018-04-30T02:51:04.732Z,110.77
2018-04-30T02:53:33.139Z,107.47
2018-04-30T02:56:01.676Z,99.70
2018-04-30T02:58:29.939Z,110.00
2018-04-30T03:00:58.994Z,97.60
2018-04-30T03:03:27.292Z,97.13
2018-04-30T03:05:56.345Z,105.83
2018-04-30T03:08:24.732Z,87.07
2018-04-30T03:10:53.022Z,90.87
2018-04-30T03:13:21.331Z,88.93
2018-04-30T03:15:49.642Z,87.00
2018-04-30T03:18:17.913Z,67.03
2018-04-30T03:20:46.166Z,75.43
2018-04-30T03:23:15.370Z,59.67
2018-04-30T03:25:44.409Z,50.13
2018-04-30T03:28:12.694Z,55.30
2018-04-30T03:30:41.121Z,57.60
2018-04-30T03:33:09.411Z,53.83
2018-04-30T03:35:37.689Z,49.40
2018-04-30T03:38:06.032Z,51.53
2018-04-30T03:40:34.336Z,56.53
2018-04-30T03:43:02.613Z,56.53
2018-04-30T03:45:30.891Z,49.27
2018-04-30T03:47:59.220Z,42.43
2018-04-30T03:50:27.439Z,45.57
2018-04-30T03:52:55.721Z,33.87
2018-04-30T03:55:24.012Z,32.97
2018-04-30T03:57:52.266Z,33.60
2018-04-30T04:00:32.485Z,35.50
2018-04-30T04:03:12.622Z,33.23
2018-04-30T04:05:52.912Z,27.40
2018-04-30T04:08:21.958Z,31.80
2018-04-30T04:10:50.408Z,33.90
2018-04-30T04:13:18.670Z,39.67
2018-04-30T04:15:47.015Z,42.37
2018-04-30T04:18:15.805Z,40.97
2018-04-30T04:20:46.234Z,34.93
2018-04-30T04:23:15.248Z,27.33
2018-04-30T04:25:43.517Z,30.20
2018-04-30T04:28:11.786Z,31.63
2018-04-30T04:30:40.084Z,34.80
2018-04-30T04:33:08.425Z,30.73
2018-04-30T04:35:36.681Z,29.73
2018-04-30T04:38:05.744Z,36.00
2018-04-30T04:40:34.053Z,37.60
2018-04-30T04:43:02.540Z,38.07
2018-04-30T04:45:30.849Z,40.40
2018-04-30T04:47:59.205Z,41.83
2018-04-30T04:50:29.038Z,37.00
2018-04-30T04:52:57.316Z,36.97
2018-04-30T04:55:25.632Z,42.77
2018-04-30T04:57:53.949Z,42.63
2018-04-30T05:00:23.058Z,41.70
2018-04-30T05:02:51.358Z,43.53
2018-04-30T05:05:19.606Z,44.60
2018-04-30T05:07:47.869Z,37.67
2018-04-30T05:10:16.954Z,35.03
2018-04-30T05:12:46.009Z,32.33
2018-04-30T05:15:14.271Z,29.13
2018-04-30T05:17:42.698Z,33.10
2018-04-30T05:20:10.970Z,26.33
2018-04-30T05:22:39.227Z,27.10
2018-04-30T05:25:07.509Z,28.40
2018-04-30T05:27:35.766Z,26.87
2018-04-30T05:30:04.043Z,25.30
2018-04-30T05:32:32.328Z,19.80
2018-04-30T05:35:00.646Z,19.77
2018-04-30T05:37:28.918Z,16.83
2018-04-30T05:39:57.964Z,10.83
2018-04-30T05:42:26.213Z,10.33
2018-04-30T05:44:54.484Z,6.97
2018-04-30T05:47:22.761Z,6.40
2018-04-30T05:49:51.046Z,4.87
2018-04-30T05:52:19.282Z,5.50
2018-04-30T05:54:47.585Z,4.70
2018-04-30T05:57:15.916Z,3.33
2018-04-30T05:59:44.190Z,5.70
2018-04-30T06:02:12.438Z,3.20
2018-04-30T06:04:40.685Z,3.93
2018-04-30T06:07:09.586Z,4.17
2018-04-30T06:09:37.832Z,4.03
2018-04-30T06:12:06.994Z,3.17
2018-04-30T06:14:36.027Z,3.70
2018-04-30T06:17:04.253Z,2.80
2018-04-30T06:19:32.681Z,3.20
2018-04-30T06:22:01.821Z,3.87
2018-04-30T06:24:30.145Z,2.67
2018-04-30T06:26:58.470Z,3.10
2018-04-30T06:29:26.821Z,3.00
2018-04-30T06:31:55.818Z,3.20
2018-04-30T06:34:24.082Z,2.77
2018-04-30T06:36:52.402Z,3.00
2018-04-30T06:39:20.668Z,2.37
2018-04-30T06:41:48.933Z,2.03
2018-04-30T06:44:17.203Z,2.43
2018-04-30T06:46:45.455Z,2.63
2018-04-30T06:49:13.725Z,2.80
2018-04-30T06:51:42.023Z,3.03
2018-04-30T06:54:10.277Z,3.67
2018-04-30T06:56:39.281Z,4.67
2018-04-30T06:59:07.536Z,4.57
2018-04-30T07:01:36.558Z,6.47
2018-04-30T07:04:04.809Z,3.20
2018-04-30T07:06:33.802Z,4.53
2018-04-30T07:09:02.197Z,3.13
2018-04-30T07:11:31.238Z,2.50
2018-04-30T07:13:59.468Z,2.70
2018-04-30T07:16:27.849Z,3.20
2018-04-30T07:18:56.129Z,1.87
2018-04-30T07:21:24.354Z,1.93
2018-04-30T07:23:53.369Z,4.00
2018-04-30T07:26:23.167Z,3.23
2018-04-30T07:28:51.422Z,3.10
2018-04-30T07:31:19.699Z,4.27
2018-04-30T07:33:47.946Z,2.07
2018-04-30T07:36:16.229Z,1.63
2018-04-30T07:38:45.256Z,2.50
2018-04-30T07:41:14.277Z,2.87
2018-04-30T07:43:42.498Z,2.03
2018-04-30T07:46:11.578Z,2.67
2018-04-30T07:48:39.838Z,2.27
2018-04-30T07:51:08.114Z,3.47
2018-04-30T07:53:36.350Z,1.90
2018-04-30T07:56:04.601Z,2.63
2018-04-30T07:58:33.630Z,1.73
2018-04-30T08:01:01.896Z,1.47
2018-04-30T08:03:30.185Z,1.50
2018-04-30T08:05:58.428Z,1.53
2018-04-30T08:08:27.446Z,1.80
2018-04-30T08:10:55.722Z,1.13
2018-04-30T08:13:24.718Z,3.13
2018-04-30T08:15:53.008Z,1.33
2018-04-30T08:18:22.107Z,1.50
2018-04-30T08:20:50.358Z,1.73
2018-04-30T08:23:18.642Z,2.90
2018-04-30T08:25:46.963Z,3.30
2018-04-30T08:28:16.010Z,1.43
2018-04-30T08:40:35.059Z,2.27
2018-04-30T08:43:03.389Z,2.47
2018-04-30T08:45:31.642Z,1.20
2018-04-30T08:47:59.884Z,4.50
2018-04-30T08:50:28.369Z,2.67
2018-04-30T08:53:00.699Z,1.63
2018-04-30T08:55:29.002Z,0.87
2018-04-30T08:57:57.280Z,2.43
2018-04-30T09:00:25.552Z,2.53
2018-04-30T09:02:53.772Z,1.27
2018-04-30T09:05:22.782Z,1.17
2018-04-30T09:07:51.162Z,2.40
2018-04-30T09:10:19.859Z,0.90
2018-04-30T09:12:49.006Z,1.03
2018-04-30T09:15:17.273Z,0.73
2018-04-30T09:17:45.481Z,2.20
2018-04-30T09:20:20.243Z,1.80
2018-04-30T09:22:49.501Z,3.90
2018-04-30T09:25:18.541Z,1.40
2018-04-30T09:27:46.773Z,2.83
2018-04-30T09:30:15.039Z,2.30
2018-04-30T09:32:44.037Z,1.30
2018-04-30T09:35:12.342Z,2.20
2018-04-30T09:37:40.578Z,1.73
2018-04-30T09:40:09.049Z,3.13
2018-04-30T09:42:37.310Z,3.30
2018-04-30T09:45:05.544Z,3.40
2018-04-30T09:47:33.973Z,2.43
2018-04-30T09:50:02.214Z,0.60
2018-04-30T09:52:30.476Z,1.63
2018-04-30T09:54:58.750Z,3.33
2018-04-30T09:57:27.013Z,2.33
2018-04-30T09:59:55.299Z,2.00
2018-04-30T10:02:23.571Z,0.93
2018-04-30T10:04:51.835Z,2.23
2018-04-30T10:07:20.200Z,1.23
2018-04-30T10:09:48.439Z,1.23
2018-04-30T10:12:16.754Z,6.80
2018-04-30T10:14:45.005Z,1.27
2018-04-30T10:17:14.058Z,3.70
2018-04-30T10:19:42.426Z,1.20
2018-04-30T10:22:10.731Z,1.33
2018-04-30T10:24:39.015Z,2.20
2018-04-30T10:27:08.034Z,1.90
2018-04-30T10:29:36.280Z,0.80
2018-04-30T10:32:04.579Z,0.60
2018-04-30T10:34:32.824Z,1.43
2018-04-30T10:37:01.869Z,2.23
2018-04-30T10:39:30.094Z,1.83
2018-04-30T10:41:58.340Z,1.00
2018-04-30T10:44:26.589Z,0.83
2018-04-30T10:46:54.828Z,1.53
2018-04-30T10:49:23.851Z,1.10
2018-04-30T10:51:52.144Z,1.70
2018-04-30T10:54:20.449Z,3.30
2018-04-30T10:56:48.700Z,1.50
2018-04-30T10:59:16.947Z,1.27
2018-04-30T11:01:45.181Z,1.77
2018-04-30T11:04:13.603Z,0.90
2018-04-30T11:06:41.825Z,1.80
2018-04-30T11:09:10.179Z,1.10
2018-04-30T11:11:38.389Z,1.07
2018-04-30T11:14:07.400Z,2.37
2018-04-30T11:16:36.412Z,1.13
2018-04-30T11:19:04.653Z,2.83
2018-04-30T11:21:32.876Z,3.83
2018-04-30T11:24:01.133Z,1.67
2018-04-30T11:26:29.345Z,0.80
2018-04-30T11:28:57.597Z,2.10
2018-04-30T11:31:25.852Z,2.60
2018-04-30T11:33:54.133Z,2.60
2018-04-30T11:36:22.359Z,1.33
2018-04-30T11:38:51.519Z,3.60
2018-04-30T11:41:19.794Z,4.17
2018-04-30T11:43:48.037Z,1.97
2018-04-30T11:46:18.017Z,1.97
2018-04-30T11:48:46.265Z,1.23
2018-04-30T11:51:14.739Z,1.37
2018-04-30T11:53:42.954Z,3.60
2018-04-30T11:56:11.313Z,0.80
2018-04-30T11:58:39.611Z,2.80
2018-04-30T12:01:07.804Z,1.43
2018-04-30T12:03:36.058Z,3.20
2018-04-30T12:06:04.330Z,1.43
2018-04-30T12:08:32.573Z,1.47
2018-04-30T12:11:00.911Z,2.43
2018-04-30T12:13:29.054Z,0.97
2018-04-30T12:15:57.318Z,2.03
2018-04-30T12:18:25.583Z,2.10
2018-04-30T12:20:53.833Z,1.10
2018-04-30T12:23:22.067Z,1.30
2018-04-30T12:25:51.070Z,3.90
2018-04-30T12:28:20.072Z,1.07
2018-04-30T12:30:48.404Z,1.83
2018-04-30T12:33:16.666Z,1.87
2018-04-30T12:35:44.897Z,0.93
2018-04-30T12:38:13.171Z,1.00
2018-04-30T12:40:41.396Z,4.17
2018-04-30T12:43:10.581Z,1.77
2018-04-30T12:45:38.999Z,1.00
2018-04-30T12:48:08.151Z,2.30
2018-04-30T12:50:37.262Z,0.97
2018-04-30T12:53:05.556Z,1.43
2018-04-30T12:55:33.813Z,0.67
2018-04-30T12:58:02.074Z,2.40
2018-04-30T13:00:30.335Z,1.30
2018-04-30T13:02:59.384Z,0.57
2018-04-30T13:05:28.401Z,0.80
2018-04-30T13:07:56.614Z,0.70
2018-04-30T13:10:24.872Z,0.60
2018-04-30T13:12:53.130Z,0.90
2018-04-30T13:15:21.398Z,0.50
2018-04-30T13:17:50.400Z,1.60
2018-04-30T13:20:18.673Z,0.60
2018-04-30T13:22:46.893Z,1.03
2018-04-30T13:25:15.135Z,2.77
2018-04-30T13:27:43.704Z,1.90
2018-04-30T13:30:11.968Z,0.50
2018-04-30T13:32:40.389Z,0.40
2018-04-30T13:35:08.687Z,0.70
2018-04-30T13:37:36.974Z,1.07
2018-04-30T13:40:05.987Z,0.70
2018-04-30T13:42:34.270Z,2.70
2018-04-30T13:45:02.634Z,2.30
2018-04-30T13:47:30.867Z,1.10
2018-04-30T13:49:59.302Z,0.37
2018-04-30T13:52:27.546Z,1.60
2018-04-30T13:54:56.599Z,1.87
2018-04-30T13:57:24.866Z,0.40
2018-04-30T13:59:53.100Z,0.90
2018-04-30T14:02:21.452Z,0.80
2018-04-30T14:04:49.652Z,0.77
2018-04-30T14:07:17.955Z,0.60
2018-04-30T14:09:46.179Z,0.73
2018-04-30T14:12:15.232Z,1.00
2018-04-30T14:14:43.479Z,1.57
2018-04-30T14:17:11.938Z,1.73
2018-04-30T14:19:41.032Z,0.40
2018-04-30T14:22:10.047Z,3.20
2018-04-30T14:24:38.302Z,0.87
2018-04-30T14:27:06.571Z,2.83
2018-04-30T14:29:35.601Z,2.00
2018-04-30T14:32:03.833Z,0.53
2018-04-30T14:34:32.833Z,1.07
2018-04-30T14:37:01.107Z,1.97
2018-04-30T14:39:29.379Z,0.50
2018-04-30T14:41:58.379Z,0.60
2018-04-30T14:44:26.842Z,4.40
2018-04-30T14:46:55.069Z,0.90
2018-04-30T14:49:23.333Z,2.53
2018-04-30T14:51:51.659Z,0.90
2018-04-30T14:54:20.667Z,3.53
2018-04-30T14:56:49.775Z,0.50
2018-04-30T14:59:17.949Z,0.40
2018-04-30T15:01:46.228Z,2.97
2018-04-30T15:04:14.520Z,1.27
2018-04-30T15:06:42.756Z,1.60
2018-04-30T15:09:11.117Z,0.90
2018-04-30T15:11:39.349Z,0.47
2018-04-30T15:14:07.711Z,0.50
2018-04-30T15:16:35.955Z,1.23
2018-04-30T15:19:04.979Z,0.90
2018-04-30T15:21:33.230Z,0.60
2018-04-30T15:24:02.251Z,2.97
2018-04-30T15:26:30.509Z,1.37
2018-04-30T15:28:58.761Z,1.30
2018-04-30T15:31:27.862Z,0.40
2018-04-30T15:33:57.037Z,1.23
2018-04-30T15:36:26.073Z,2.77
2018-04-30T15:38:54.473Z,4.10
2018-04-30T15:41:22.764Z,2.10
2018-04-30T15:43:50.998Z,2.00
2018-04-30T15:46:19.241Z,1.67
2018-04-30T15:48:48.505Z,1.07
2018-04-30T15:51:17.478Z,1.93
2018-04-30T15:53:45.719Z,1.77
2018-04-30T15:56:14.717Z,0.40
2018-04-30T15:58:43.087Z,4.13
2018-04-30T16:01:12.075Z,1.53
2018-04-30T16:03:41.128Z,0.50
2018-04-30T16:06:09.366Z,2.10
2018-04-30T16:08:37.604Z,2.10
2018-04-30T16:11:06.593Z,2.83
2018-04-30T16:13:35.634Z,0.83
2018-04-30T16:16:03.873Z,1.63
2018-04-30T16:18:32.256Z,4.87
2018-04-30T16:21:01.277Z,1.70
2018-04-30T16:23:29.533Z,2.80
2018-04-30T16:25:58.571Z,3.90
2018-04-30T16:28:26.812Z,1.10
2018-04-30T16:30:55.176Z,4.83
2018-04-30T16:33:23.491Z,4.50
2018-04-30T16:35:52.581Z,3.13
2018-04-30T16:38:20.822Z,2.30
2018-04-30T16:40:50.747Z,5.57
2018-04-30T16:43:18.993Z,2.40
2018-04-30T16:45:47.263Z,2.27
2018-04-30T16:48:15.552Z,0.93
2018-04-30T16:50:43.866Z,4.53
2018-04-30T16:53:12.097Z,1.07
2018-04-30T16:55:41.117Z,1.40
2018-04-30T16:58:09.411Z,1.80
2018-04-30T17:00:37.703Z,1.17
2018-04-30T17:03:06.205Z,3.30
2018-04-30T17:05:34.466Z,1.10
2018-04-30T17:08:04.201Z,1.47
2018-04-30T17:10:33.298Z,1.67
2018-04-30T17:13:01.803Z,1.73
2018-04-30T17:15:30.270Z,6.77
2018-04-30T17:17:59.275Z,4.97
2018-04-30T17:20:27.551Z,7.40
2018-04-30T17:22:55.836Z,6.70
2018-04-30T17:25:25.014Z,8.87
2018-04-30T17:27:53.534Z,4.03
2018-04-30T17:30:21.783Z,1.63
2018-04-30T17:32:50.030Z,4.10
2018-04-30T17:35:18.264Z,4.33
2018-04-30T17:37:46.518Z,4.23
2018-04-30T17:40:14.762Z,2.60
2018-04-30T17:42:43.025Z,3.10
2018-04-30T17:45:12.082Z,5.23
2018-04-30T17:47:40.324Z,2.83
2018-04-30T17:50:08.569Z,0.90
2018-04-30T17:52:37.612Z,1.47
2018-04-30T17:55:05.949Z,2.70
2018-04-30T17:57:34.210Z,0.87
2018-04-30T18:00:03.216Z,1.97
2018-04-30T18:02:32.198Z,1.77
2018-04-30T18:05:00.443Z,0.80
2018-04-30T18:07:28.723Z,6.73
2018-04-30T18:09:57.758Z,0.90
2018-04-30T18:12:25.995Z,3.90
2018-04-30T18:14:54.341Z,2.10
2018-04-30T18:17:23.064Z,1.87
2018-04-30T18:19:51.363Z,1.57
2018-04-30T18:22:19.602Z,2.27
2018-04-30T18:24:48.170Z,2.53
2018-04-30T18:27:19.986Z,1.60
2018-04-30T18:29:48.237Z,2.10
2018-04-30T18:32:16.566Z,1.63
2018-04-30T18:34:44.956Z,0.70
2018-04-30T18:37:13.219Z,1.03
2018-04-30T18:39:42.387Z,1.10
2018-04-30T18:42:11.292Z,4.17
2018-04-30T18:44:39.698Z,2.87
2018-04-30T18:47:08.027Z,1.20
2018-04-30T18:49:36.643Z,0.77
2018-04-30T18:52:04.896Z,1.23
2018-04-30T18:54:33.199Z,0.30
2018-04-30T18:57:02.390Z,2.00
2018-04-30T18:59:30.610Z,2.20
2018-04-30T19:01:58.893Z,1.13
2018-04-30T19:04:27.351Z,1.80
2018-04-30T19:06:56.626Z,2.57
2018-04-30T19:09:24.944Z,0.80
2018-04-30T19:11:53.183Z,2.97
2018-04-30T19:14:21.564Z,1.27
2018-04-30T19:16:49.908Z,0.20
2018-04-30T19:19:18.146Z,0.30
2018-04-30T19:21:46.425Z,2.00
2018-04-30T19:24:15.431Z,0.90
2018-04-30T19:26:43.698Z,1.40
2018-04-30T19:29:12.718Z,0.40
2018-04-30T19:31:40.978Z,0.80
2018-04-30T19:34:10.403Z,0.50
2018-04-30T19:36:38.613Z,1.80
2018-04-30T19:39:07.622Z,0.50
2018-04-30T19:41:35.884Z,0.40
2018-04-30T19:44:04.149Z,2.33
2018-04-30T19:46:32.392Z,0.40
2018-04-30T19:49:00.637Z,0.93
2018-04-30T19:51:28.883Z,1.60
2018-04-30T19:53:57.924Z,0.40
2018-04-30T19:56:26.149Z,0.67
2018-04-30T19:58:55.179Z,0.67
2018-04-30T20:01:23.457Z,0.30
2018-04-30T20:03:51.698Z,1.23
2018-04-30T20:06:19.973Z,0.90
2018-04-30T20:08:49.120Z,3.60
2018-04-30T20:11:17.274Z,0.50
2018-04-30T20:13:45.518Z,2.27
2018-04-30T20:16:14.545Z,0.40
2018-04-30T20:18:42.843Z,0.50
2018-04-30T20:21:11.109Z,0.50
2018-04-30T20:23:39.353Z,0.63
2018-04-30T20:26:07.627Z,0.80
2018-04-30T20:28:35.858Z,0.57
2018-04-30T20:31:04.897Z,1.23
2018-04-30T20:33:33.188Z,1.63
2018-04-30T20:36:01.414Z,1.07
2018-04-30T20:38:29.662Z,1.40
2018-04-30T20:40:58.131Z,0.77
2018-04-30T20:43:26.404Z,1.00
2018-04-30T20:45:54.772Z,1.60
2018-04-30T20:48:22.991Z,3.10
2018-04-30T20:50:51.327Z,1.80
2018-04-30T20:53:19.544Z,2.57
2018-04-30T20:55:48.559Z,1.80
2018-04-30T20:58:16.770Z,2.27
2018-04-30T21:00:45.038Z,2.50
2018-04-30T21:03:13.264Z,5.63
2018-04-30T21:05:42.373Z,2.10
2018-04-30T21:08:11.510Z,1.93
2018-04-30T21:10:40.551Z,2.43
2018-04-30T21:13:09.566Z,3.77
2018-04-30T21:15:37.814Z,3.03
2018-04-30T21:18:07.073Z,4.60
2018-04-30T21:20:35.301Z,2.10
2018-04-30T21:23:03.558Z,2.33
2018-04-30T21:25:32.620Z,2.77
2018-04-30T21:28:00.892Z,2.43
2018-04-30T21:30:29.168Z,2.40
2018-04-30T21:32:57.451Z,2.23
2018-04-30T21:35:25.666Z,2.47
2018-04-30T21:37:53.934Z,3.20
2018-04-30T21:40:22.200Z,2.77
2018-04-30T21:42:51.194Z,2.77
2018-04-30T21:45:20.199Z,1.60
2018-04-30T21:47:48.489Z,1.47
2018-04-30T21:50:16.745Z,2.37
2018-04-30T21:52:44.976Z,2.23
2018-04-30T21:55:13.993Z,1.90
2018-04-30T21:57:42.996Z,1.30
2018-04-30T22:00:12.028Z,1.40
2018-04-30T22:02:40.303Z,1.47
2018-04-30T22:05:08.610Z,2.27
2018-04-30T22:07:37.686Z,1.30
2018-04-30T22:10:05.903Z,2.13
2018-04-30T22:12:35.158Z,1.47
2018-04-30T22:15:03.401Z,1.57
2018-04-30T22:17:32.195Z,1.20
2018-04-30T22:20:00.412Z,1.23
2018-04-30T22:22:29.633Z,1.00
2018-04-30T22:24:58.114Z,0.90
2018-04-30T22:27:26.569Z,1.50
2018-04-30T22:29:55.598Z,1.27
2018-04-30T22:32:23.916Z,1.50
2018-04-30T22:34:52.165Z,1.30
2018-04-30T22:37:20.481Z,1.50
2018-04-30T22:39:49.522Z,1.23
2018-04-30T22:42:17.787Z,2.60
2018-04-30T22:44:46.062Z,1.73
2018-04-30T22:47:14.609Z,1.40
2018-04-30T22:49:42.886Z,1.40
2018-04-30T22:52:11.100Z,1.50
2018-04-30T22:54:40.135Z,1.60
2018-04-30T22:57:08.453Z,1.60
2018-04-30T22:59:36.739Z,1.80
2018-04-30T23:02:04.998Z,2.00
2018-04-30T23:04:33.278Z,1.80
2018-04-30T23:07:01.532Z,2.87
2018-04-30T23:09:30.553Z,2.00
2018-04-30T23:11:59.024Z,2.40
2018-04-30T23:14:27.274Z,2.60
2018-04-30T23:16:55.764Z,2.47
2018-04-30T23:19:24.223Z,2.17
2018-04-30T23:21:52.429Z,2.27
2018-04-30T23:24:20.705Z,2.60
2018-04-30T23:26:48.970Z,3.07
2018-04-30T23:29:17.283Z,4.37
2018-04-30T23:31:45.545Z,2.97
2018-04-30T23:34:13.822Z,3.57
2018-04-30T23:36:42.114Z,3.87
2018-04-30T23:39:10.429Z,2.13
2018-04-30T23:41:39.463Z,2.50
2018-04-30T23:44:07.730Z,1.77
2018-04-30T23:46:35.978Z,1.80
2018-04-30T23:49:05.039Z,2.07
2018-04-30T23:51:33.322Z,1.30
2018-04-30T23:54:01.562Z,1.50
2018-04-30T23:56:29.870Z,1.17
2018-04-30T23:58:58.084Z,2.00
